sensor_id;sensor_type;location;lat;lon;timestamp;temperature;humidity
54796;DHT22;40693;43.884;20.340;2023-06-22T00:00:44;640.10;2432.00
54796;DHT22;40693;43.884;20.340;2023-06-22T00:03:10;640.10;2432.00
54796;DHT22;40693;43.884;20.340;2023-06-22T00:05:36;640.10;2432.00
54796;DHT22;40693;43.884;20.340;2023-06-22T00:08:03;640.10;2432.00
54796;DHT22;40693;43.884;20.340;2023-06-22T00:10:30;640.10;2432.00
54796;DHT22;40693;43.884;20.340;2023-06-22T00:12:56;640.10;2432.00
54796;DHT22;40693;43.884;20.340;2023-06-22T00:15:21;640.10;2432.00
54796;DHT22;40693;43.884;20.340;2023-06-22T00:17:47;640.00;2432.00
54796;DHT22;40693;43.884;20.340;2023-06-22T00:20:13;615.30;2432.00
54796;DHT22;40693;43.884;20.340;2023-06-22T00:22:39;615.10;2432.00
54796;DHT22;40693;43.884;20.340;2023-06-22T00:25:08;615.10;2432.00
54796;DHT22;40693;43.884;20.340;2023-06-22T00:27:34;615.10;2432.00
54796;DHT22;40693;43.884;20.340;2023-06-22T00:30:00;615.10;2432.00
54796;DHT22;40693;43.884;20.340;2023-06-22T00:32:26;615.20;2432.00
54796;DHT22;40693;43.884;20.340;2023-06-22T00:34:52;615.20;2432.00
54796;DHT22;40693;43.884;20.340;2023-06-22T00:37:18;615.30;2432.00
54796;DHT22;40693;43.884;20.340;2023-06-22T00:39:44;615.30;2432.00
54796;DHT22;40693;43.884;20.340;2023-06-22T00:42:09;615.30;2432.00
54796;DHT22;40693;43.884;20.340;2023-06-22T00:44:36;615.30;2432.00
54796;DHT22;40693;43.884;20.340;2023-06-22T00:47:02;615.30;2432.00
54796;DHT22;40693;43.884;20.340;2023-06-22T00:49:29;615.30;2432.00
54796;DHT22;40693;43.884;20.340;2023-06-22T00:51:55;640.00;2432.00
54796;DHT22;40693;43.884;20.340;2023-06-22T00:54:21;640.00;2432.00
54796;DHT22;40693;43.884;20.340;2023-06-22T00:56:59;640.00;2432.00
54796;DHT22;40693;43.884;20.340;2023-06-22T00:59:26;640.00;2432.00
54796;DHT22;40693;43.884;20.340;2023-06-22T01:01:52;615.30;2432.00
54796;DHT22;40693;43.884;20.340;2023-06-22T01:04:17;615.20;2432.00
54796;DHT22;40693;43.884;20.340;2023-06-22T01:07:00;615.10;2432.00
54796;DHT22;40693;43.884;20.340;2023-06-22T01:09:31;615.20;2432.00
54796;DHT22;40693;43.884;20.340;2023-06-22T01:12:02;615.20;2432.00
54796;DHT22;40693;43.884;20.340;2023-06-22T01:14:38;615.20;2432.00
54796;DHT22;40693;43.884;20.340;2023-06-22T01:17:08;615.20;2432.00
54796;DHT22;40693;43.884;20.340;2023-06-22T01:22:01;615.20;2432.00
54796;DHT22;40693;43.884;20.340;2023-06-22T01:24:33;615.20;2432.00
54796;DHT22;40693;43.884;20.340;2023-06-22T01:29:58;615.20;2432.00
54796;DHT22;40693;43.884;20.340;2023-06-22T01:32:31;615.20;2432.00
54796;DHT22;40693;43.884;20.340;2023-06-22T01:35:00;615.20;2432.00
54796;DHT22;40693;43.884;20.340;2023-06-22T01:37:27;615.20;2432.00
54796;DHT22;40693;43.884;20.340;2023-06-22T01:39:55;615.10;2432.00
54796;DHT22;40693;43.884;20.340;2023-06-22T01:42:23;615.10;2432.00
54796;DHT22;40693;43.884;20.340;2023-06-22T01:44:49;615.00;2432.00
54796;DHT22;40693;43.884;20.340;2023-06-22T01:47:16;615.00;2432.00
54796;DHT22;40693;43.884;20.340;2023-06-22T01:49:43;615.00;2432.00
54796;DHT22;40693;43.884;20.340;2023-06-22T01:52:09;615.00;2432.00
54796;DHT22;40693;43.884;20.340;2023-06-22T01:54:35;615.00;2432.00
54796;DHT22;40693;43.884;20.340;2023-06-22T01:57:01;615.00;2432.00
54796;DHT22;40693;43.884;20.340;2023-06-22T01:59:34;614.90;2432.00
54796;DHT22;40693;43.884;20.340;2023-06-22T02:02:07;615.00;2432.00
54796;DHT22;40693;43.884;20.340;2023-06-22T02:04:51;614.90;2432.00
54796;DHT22;40693;43.884;20.340;2023-06-22T02:07:21;614.80;2432.00
54796;DHT22;40693;43.884;20.340;2023-06-22T02:09:50;614.60;2432.00
54796;DHT22;40693;43.884;20.340;2023-06-22T02:12:20;614.50;2432.00
54796;DHT22;40693;43.884;20.340;2023-06-22T02:14:47;614.40;2432.00
54796;DHT22;40693;43.884;20.340;2023-06-22T02:17:14;589.70;2432.00
54796;DHT22;40693;43.884;20.340;2023-06-22T02:19:43;589.50;2432.00
54796;DHT22;40693;43.884;20.340;2023-06-22T02:22:08;589.40;2432.00
54796;DHT22;40693;43.884;20.340;2023-06-22T02:24:34;589.30;2432.00
54796;DHT22;40693;43.884;20.340;2023-06-22T02:27:00;589.20;2432.00
54796;DHT22;40693;43.884;20.340;2023-06-22T02:29:27;589.20;2432.00
54796;DHT22;40693;43.884;20.340;2023-06-22T02:31:54;589.30;2432.00
54796;DHT22;40693;43.884;20.340;2023-06-22T02:34:20;589.30;2432.00
54796;DHT22;40693;43.884;20.340;2023-06-22T02:36:46;589.20;2432.00
54796;DHT22;40693;43.884;20.340;2023-06-22T02:39:19;589.10;2432.00
54796;DHT22;40693;43.884;20.340;2023-06-22T02:41:45;589.10;2432.00
54796;DHT22;40693;43.884;20.340;2023-06-22T02:44:11;589.10;2432.00
54796;DHT22;40693;43.884;20.340;2023-06-22T02:46:37;589.10;2432.00
54796;DHT22;40693;43.884;20.340;2023-06-22T02:49:03;589.10;2432.00
54796;DHT22;40693;43.884;20.340;2023-06-22T02:51:28;589.00;2432.00
54796;DHT22;40693;43.884;20.340;2023-06-22T02:53:54;589.00;2432.00
54796;DHT22;40693;43.884;20.340;2023-06-22T02:56:22;589.00;2432.00
54796;DHT22;40693;43.884;20.340;2023-06-22T02:58:51;589.00;2432.00
54796;DHT22;40693;43.884;20.340;2023-06-22T03:01:17;589.00;2432.00
54796;DHT22;40693;43.884;20.340;2023-06-22T03:03:49;589.10;2432.00
54796;DHT22;40693;43.884;20.340;2023-06-22T03:06:15;589.20;2432.00
54796;DHT22;40693;43.884;20.340;2023-06-22T03:08:41;589.20;2432.00
54796;DHT22;40693;43.884;20.340;2023-06-22T03:11:07;589.20;2432.00
54796;DHT22;40693;43.884;20.340;2023-06-22T03:13:33;589.20;2432.00
54796;DHT22;40693;43.884;20.340;2023-06-22T03:15:59;589.20;2432.00
54796;DHT22;40693;43.884;20.340;2023-06-22T03:18:25;589.30;2432.00
54796;DHT22;40693;43.884;20.340;2023-06-22T03:20:50;589.30;2432.00
54796;DHT22;40693;43.884;20.340;2023-06-22T03:23:16;589.40;2432.00
54796;DHT22;40693;43.884;20.340;2023-06-22T03:25:42;589.40;2432.00
54796;DHT22;40693;43.884;20.340;2023-06-22T03:28:10;589.50;2432.00
54796;DHT22;40693;43.884;20.340;2023-06-22T03:30:36;589.60;2432.00
54796;DHT22;40693;43.884;20.340;2023-06-22T03:33:01;589.60;2432.00
54796;DHT22;40693;43.884;20.340;2023-06-22T03:35:27;589.60;2432.00
54796;DHT22;40693;43.884;20.340;2023-06-22T03:37:53;589.50;2432.00
54796;DHT22;40693;43.884;20.340;2023-06-22T03:40:19;589.40;2432.00
54796;DHT22;40693;43.884;20.340;2023-06-22T03:42:45;589.30;2432.00
54796;DHT22;40693;43.884;20.340;2023-06-22T03:45:11;589.30;2432.00
54796;DHT22;40693;43.884;20.340;2023-06-22T03:47:37;589.40;2432.00
54796;DHT22;40693;43.884;20.340;2023-06-22T03:50:03;589.40;2432.00
54796;DHT22;40693;43.884;20.340;2023-06-22T03:52:29;589.50;2432.00
54796;DHT22;40693;43.884;20.340;2023-06-22T03:54:55;589.60;2432.00
54796;DHT22;40693;43.884;20.340;2023-06-22T03:57:21;589.60;2432.00
54796;DHT22;40693;43.884;20.340;2023-06-22T03:59:47;589.60;2432.00
54796;DHT22;40693;43.884;20.340;2023-06-22T04:02:13;589.60;2432.00
54796;DHT22;40693;43.884;20.340;2023-06-22T04:04:38;589.60;2432.00
54796;DHT22;40693;43.884;20.340;2023-06-22T04:07:05;589.60;2432.00
54796;DHT22;40693;43.884;20.340;2023-06-22T04:09:31;589.60;2432.00
54796;DHT22;40693;43.884;20.340;2023-06-22T04:11:56;589.60;2432.00
54796;DHT22;40693;43.884;20.340;2023-06-22T04:14:22;589.60;2432.00
54796;DHT22;40693;43.884;20.340;2023-06-22T04:16:48;589.50;2432.00
54796;DHT22;40693;43.884;20.340;2023-06-22T04:19:13;589.50;2432.00
54796;DHT22;40693;43.884;20.340;2023-06-22T04:21:45;589.40;2432.00
54796;DHT22;40693;43.884;20.340;2023-06-22T04:24:11;589.30;2432.00
54796;DHT22;40693;43.884;20.340;2023-06-22T04:26:37;589.30;2432.00
54796;DHT22;40693;43.884;20.340;2023-06-22T04:29:04;589.40;2432.00
54796;DHT22;40693;43.884;20.340;2023-06-22T04:31:32;589.40;2432.00
54796;DHT22;40693;43.884;20.340;2023-06-22T04:34:02;589.40;2432.00
54796;DHT22;40693;43.884;20.340;2023-06-22T04:36:40;589.30;2432.00
54796;DHT22;40693;43.884;20.340;2023-06-22T04:39:09;589.30;2432.00
54796;DHT22;40693;43.884;20.340;2023-06-22T04:41:39;589.40;2432.00
54796;DHT22;40693;43.884;20.340;2023-06-22T04:44:08;589.30;2432.00
54796;DHT22;40693;43.884;20.340;2023-06-22T04:46:34;589.30;2432.00
54796;DHT22;40693;43.884;20.340;2023-06-22T04:49:07;589.30;2432.00
54796;DHT22;40693;43.884;20.340;2023-06-22T04:51:39;589.50;2432.00
54796;DHT22;40693;43.884;20.340;2023-06-22T04:54:05;589.40;2432.00
54796;DHT22;40693;43.884;20.340;2023-06-22T04:56:31;589.30;2432.00
54796;DHT22;40693;43.884;20.340;2023-06-22T04:58:57;589.30;2432.00
54796;DHT22;40693;43.884;20.340;2023-06-22T05:01:25;589.20;2432.00
54796;DHT22;40693;43.884;20.340;2023-06-22T05:03:51;589.20;2432.00
54796;DHT22;40693;43.884;20.340;2023-06-22T05:06:21;589.20;2432.00
54796;DHT22;40693;43.884;20.340;2023-06-22T05:08:52;589.20;2432.00
54796;DHT22;40693;43.884;20.340;2023-06-22T05:11:18;589.30;2432.00
54796;DHT22;40693;43.884;20.340;2023-06-22T05:13:44;589.20;2432.00
54796;DHT22;40693;43.884;20.340;2023-06-22T05:16:09;589.20;2432.00
54796;DHT22;40693;43.884;20.340;2023-06-22T05:18:35;589.20;2432.00
54796;DHT22;40693;43.884;20.340;2023-06-22T05:21:01;589.20;2432.00
54796;DHT22;40693;43.884;20.340;2023-06-22T05:23:27;589.30;2432.00
54796;DHT22;40693;43.884;20.340;2023-06-22T05:25:53;589.30;2432.00
54796;DHT22;40693;43.884;20.340;2023-06-22T05:28:20;589.30;2432.00
54796;DHT22;40693;43.884;20.340;2023-06-22T05:30:48;589.30;2432.00
54796;DHT22;40693;43.884;20.340;2023-06-22T05:33:14;589.40;2432.00
54796;DHT22;40693;43.884;20.340;2023-06-22T05:35:39;589.50;2432.00
54796;DHT22;40693;43.884;20.340;2023-06-22T05:38:05;589.60;2432.00
54796;DHT22;40693;43.884;20.340;2023-06-22T05:40:31;589.70;2432.00
54796;DHT22;40693;43.884;20.340;2023-06-22T05:42:56;614.40;2432.00
54796;DHT22;40693;43.884;20.340;2023-06-22T05:45:22;614.50;2432.00
54796;DHT22;40693;43.884;20.340;2023-06-22T05:47:48;614.50;2432.00
54796;DHT22;40693;43.884;20.340;2023-06-22T05:50:14;614.50;2432.00
54796;DHT22;40693;43.884;20.340;2023-06-22T05:52:39;614.60;2432.00
54796;DHT22;40693;43.884;20.340;2023-06-22T05:55:05;614.70;2432.00
54796;DHT22;40693;43.884;20.340;2023-06-22T05:57:31;614.80;2432.00
54796;DHT22;40693;43.884;20.340;2023-06-22T05:59:57;614.80;2432.00
54796;DHT22;40693;43.884;20.340;2023-06-22T06:02:22;614.80;2432.00
54796;DHT22;40693;43.884;20.340;2023-06-22T06:04:48;615.00;2432.00
54796;DHT22;40693;43.884;20.340;2023-06-22T06:07:16;615.10;2432.00
54796;DHT22;40693;43.884;20.340;2023-06-22T06:09:42;615.20;2432.00
54796;DHT22;40693;43.884;20.340;2023-06-22T06:12:08;615.20;2432.00
54796;DHT22;40693;43.884;20.340;2023-06-22T06:14:34;615.30;2432.00
54796;DHT22;40693;43.884;20.340;2023-06-22T06:16:59;615.30;2432.00
54796;DHT22;40693;43.884;20.340;2023-06-22T06:19:25;640.10;2432.00
54796;DHT22;40693;43.884;20.340;2023-06-22T06:21:51;640.10;2432.00
54796;DHT22;40693;43.884;20.340;2023-06-22T06:24:16;640.20;2432.00
54796;DHT22;40693;43.884;20.340;2023-06-22T06:26:42;640.30;2432.00
54796;DHT22;40693;43.884;20.340;2023-06-22T06:29:08;640.40;2432.00
54796;DHT22;40693;43.884;20.340;2023-06-22T06:31:33;640.60;2432.00
54796;DHT22;40693;43.884;20.340;2023-06-22T06:33:59;640.70;2432.00
54796;DHT22;40693;43.884;20.340;2023-06-22T06:36:25;640.70;2432.00
54796;DHT22;40693;43.884;20.340;2023-06-22T06:38:50;640.80;2432.00
54796;DHT22;40693;43.884;20.340;2023-06-22T06:41:16;640.90;2432.00
54796;DHT22;40693;43.884;20.340;2023-06-22T06:43:42;665.60;2432.00
54796;DHT22;40693;43.884;20.340;2023-06-22T06:46:09;665.70;2432.00
54796;DHT22;40693;43.884;20.340;2023-06-22T06:48:35;665.80;2432.00
54796;DHT22;40693;43.884;20.340;2023-06-22T06:51:00;665.90;2432.00
54796;DHT22;40693;43.884;20.340;2023-06-22T06:53:26;665.90;2432.00
54796;DHT22;40693;43.884;20.340;2023-06-22T06:55:52;666.10;2432.00
54796;DHT22;40693;43.884;20.340;2023-06-22T06:58:18;666.20;2432.00
54796;DHT22;40693;43.884;20.340;2023-06-22T07:00:44;666.40;2432.00
54796;DHT22;40693;43.884;20.340;2023-06-22T07:03:09;666.50;2432.00
54796;DHT22;40693;43.884;20.340;2023-06-22T07:05:35;666.50;2432.00
54796;DHT22;40693;43.884;20.340;2023-06-22T07:08:01;691.20;2432.00
54796;DHT22;40693;43.884;20.340;2023-06-22T07:10:28;691.40;2432.00
54796;DHT22;40693;43.884;20.340;2023-06-22T07:12:54;691.40;2432.00
54796;DHT22;40693;43.884;20.340;2023-06-22T07:15:20;691.50;2432.00
54796;DHT22;40693;43.884;20.340;2023-06-22T07:17:46;691.60;2432.00
54796;DHT22;40693;43.884;20.340;2023-06-22T07:20:12;691.80;2432.00
54796;DHT22;40693;43.884;20.340;2023-06-22T07:22:39;691.90;2432.00
54796;DHT22;40693;43.884;20.340;2023-06-22T07:25:05;692.00;2432.00
54796;DHT22;40693;43.884;20.340;2023-06-22T07:28:00;716.80;2432.00
54796;DHT22;40693;43.884;20.340;2023-06-22T07:30:27;716.90;2432.00
54796;DHT22;40693;43.884;20.340;2023-06-22T07:32:53;717.00;2432.00
54796;DHT22;40693;43.884;20.340;2023-06-22T07:35:19;717.10;2432.00
54796;DHT22;40693;43.884;20.340;2023-06-22T07:37:44;717.30;2432.00
54796;DHT22;40693;43.884;20.340;2023-06-22T07:40:11;717.40;2432.00
54796;DHT22;40693;43.884;20.340;2023-06-22T07:42:37;717.50;2432.00
54796;DHT22;40693;43.884;20.340;2023-06-22T07:45:03;717.70;2432.00
54796;DHT22;40693;43.884;20.340;2023-06-22T07:47:29;742.40;2432.00
54796;DHT22;40693;43.884;20.340;2023-06-22T07:49:58;742.50;2432.00
54796;DHT22;40693;43.884;20.340;2023-06-22T07:52:26;742.50;2432.00
54796;DHT22;40693;43.884;20.340;2023-06-22T07:54:52;742.70;2432.00
54796;DHT22;40693;43.884;20.340;2023-06-22T07:57:18;742.80;2432.00
54796;DHT22;40693;43.884;20.340;2023-06-22T07:59:44;742.80;2432.00
54796;DHT22;40693;43.884;20.340;2023-06-22T08:02:11;742.90;2432.00
54796;DHT22;40693;43.884;20.340;2023-06-22T08:04:37;742.90;2432.00
54796;DHT22;40693;43.884;20.340;2023-06-22T08:07:03;743.00;2432.00
54796;DHT22;40693;43.884;20.340;2023-06-22T08:09:31;743.10;2432.00
54796;DHT22;40693;43.884;20.340;2023-06-22T08:11:57;743.30;2432.00
54796;DHT22;40693;43.884;20.340;2023-06-22T08:14:24;768.00;2432.00
54796;DHT22;40693;43.884;20.340;2023-06-22T08:16:50;743.30;2432.00
54796;DHT22;40693;43.884;20.340;2023-06-22T08:19:16;768.00;2432.00
54796;DHT22;40693;43.884;20.340;2023-06-22T08:21:42;743.30;2432.00
54796;DHT22;40693;43.884;20.340;2023-06-22T08:24:08;768.00;2432.00
54796;DHT22;40693;43.884;20.340;2023-06-22T08:26:35;768.10;2432.00
54796;DHT22;40693;43.884;20.340;2023-06-22T08:29:03;768.10;2432.00
54796;DHT22;40693;43.884;20.340;2023-06-22T08:31:30;768.10;2432.00
54796;DHT22;40693;43.884;20.340;2023-06-22T08:33:55;768.10;2432.00
54796;DHT22;40693;43.884;20.340;2023-06-22T08:36:21;768.20;2432.00
54796;DHT22;40693;43.884;20.340;2023-06-22T08:38:47;768.30;2432.00
54796;DHT22;40693;43.884;20.340;2023-06-22T08:41:17;768.40;2432.00
54796;DHT22;40693;43.884;20.340;2023-06-22T08:43:44;768.60;2432.00
54796;DHT22;40693;43.884;20.340;2023-06-22T08:46:13;768.70;2432.00
54796;DHT22;40693;43.884;20.340;2023-06-22T08:48:39;768.90;2432.00
54796;DHT22;40693;43.884;20.340;2023-06-22T08:51:04;768.90;2432.00
54796;DHT22;40693;43.884;20.340;2023-06-22T08:53:30;793.60;2432.00
54796;DHT22;40693;43.884;20.340;2023-06-22T08:55:56;793.80;2432.00
54796;DHT22;40693;43.884;20.340;2023-06-22T08:58:21;794.00;2432.00
54796;DHT22;40693;43.884;20.340;2023-06-22T09:00:49;794.00;2380.80
54796;DHT22;40693;43.884;20.340;2023-06-22T09:03:17;794.10;2304.00
54796;DHT22;40693;43.884;20.340;2023-06-22T09:05:42;794.20;2355.20
54796;DHT22;40693;43.884;20.340;2023-06-22T09:08:08;794.20;2304.00
54796;DHT22;40693;43.884;20.340;2023-06-22T09:10:34;794.20;2304.00
54796;DHT22;40693;43.884;20.340;2023-06-22T09:12:59;794.50;2278.40
54796;DHT22;40693;43.884;20.340;2023-06-22T09:15:25;794.50;2201.60
54796;DHT22;40693;43.884;20.340;2023-06-22T09:17:51;794.50;2227.20
54796;DHT22;40693;43.884;20.340;2023-06-22T09:20:19;819.30;2176.00
54796;DHT22;40693;43.884;20.340;2023-06-22T09:22:45;819.30;2150.40
54796;DHT22;40693;43.884;20.340;2023-06-22T09:25:11;819.40;2124.80
54796;DHT22;40693;43.884;20.340;2023-06-22T09:27:36;819.60;2073.60
54796;DHT22;40693;43.884;20.340;2023-06-22T09:30:03;819.80;2073.60
54796;DHT22;40693;43.884;20.340;2023-06-22T09:32:29;819.80;2048.00
54796;DHT22;40693;43.884;20.340;2023-06-22T09:34:54;819.90;2099.20
54796;DHT22;40693;43.884;20.340;2023-06-22T09:37:20;820.10;1996.80
54796;DHT22;40693;43.884;20.340;2023-06-22T09:39:46;820.10;2022.40
54796;DHT22;40693;43.884;20.340;2023-06-22T09:42:12;844.90;1996.80
54796;DHT22;40693;43.884;20.340;2023-06-22T09:44:38;844.90;1996.80
54796;DHT22;40693;43.884;20.340;2023-06-22T09:47:04;845.00;1971.20
54796;DHT22;40693;43.884;20.340;2023-06-22T09:49:30;845.10;1920.00
54796;DHT22;40693;43.884;20.340;2023-06-22T09:51:57;845.20;1945.60
54796;DHT22;40693;43.884;20.340;2023-06-22T09:54:23;845.20;1920.00
54796;DHT22;40693;43.884;20.340;2023-06-22T09:56:49;845.40;1920.00
54796;DHT22;40693;43.884;20.340;2023-06-22T09:59:14;845.50;1868.80
54796;DHT22;40693;43.884;20.340;2023-06-22T10:01:40;845.70;1817.60
54796;DHT22;40693;43.884;20.340;2023-06-22T10:04:06;870.40;1843.20
54796;DHT22;40693;43.884;20.340;2023-06-22T10:06:31;870.60;1868.80
54796;DHT22;40693;43.884;20.340;2023-06-22T10:08:57;870.70;1766.40
54796;DHT22;40693;43.884;20.340;2023-06-22T10:11:23;870.80;1766.40
54796;DHT22;40693;43.884;20.340;2023-06-22T10:13:54;870.90;1817.60
54796;DHT22;40693;43.884;20.340;2023-06-22T10:16:20;871.10;1689.60
54796;DHT22;40693;43.884;20.340;2023-06-22T10:18:46;871.10;1612.80
54796;DHT22;40693;43.884;20.340;2023-06-22T10:21:11;871.20;1689.60
54796;DHT22;40693;43.884;20.340;2023-06-22T10:23:37;871.20;1664.00
54796;DHT22;40693;43.884;20.340;2023-06-22T10:26:03;871.20;1587.20
54796;DHT22;40693;43.884;20.340;2023-06-22T10:28:28;871.20;1587.20
54796;DHT22;40693;43.884;20.340;2023-06-22T10:30:54;871.30;1587.20
54796;DHT22;40693;43.884;20.340;2023-06-22T10:33:20;896.00;1587.20
54796;DHT22;40693;43.884;20.340;2023-06-22T10:35:46;896.00;1561.60
54796;DHT22;40693;43.884;20.340;2023-06-22T10:38:11;896.00;1536.00
54796;DHT22;40693;43.884;20.340;2023-06-22T10:40:37;896.10;1536.00
54796;DHT22;40693;43.884;20.340;2023-06-22T10:43:04;896.20;1612.80
54796;DHT22;40693;43.884;20.340;2023-06-22T10:45:30;896.40;1587.20
54796;DHT22;40693;43.884;20.340;2023-06-22T10:47:56;896.30;1561.60
54796;DHT22;40693;43.884;20.340;2023-06-22T10:50:22;896.40;1536.00
54796;DHT22;40693;43.884;20.340;2023-06-22T10:52:49;896.40;1484.80
54796;DHT22;40693;43.884;20.340;2023-06-22T10:55:15;896.50;1536.00
54796;DHT22;40693;43.884;20.340;2023-06-22T10:57:40;896.70;1484.80
54796;DHT22;40693;43.884;20.340;2023-06-22T11:00:09;896.60;1433.60
54796;DHT22;40693;43.884;20.340;2023-06-22T11:02:34;896.60;1536.00
54796;DHT22;40693;43.884;20.340;2023-06-22T11:05:00;896.70;1484.80
54796;DHT22;40693;43.884;20.340;2023-06-22T11:07:26;896.90;1459.20
54796;DHT22;40693;43.884;20.340;2023-06-22T11:09:54;922.00;1459.20
54796;DHT22;40693;43.884;20.340;2023-06-22T11:12:19;921.70;1433.60
54796;DHT22;40693;43.884;20.340;2023-06-22T11:14:45;921.80;1408.00
54796;DHT22;40693;43.884;20.340;2023-06-22T11:17:11;921.80;1382.40
54796;DHT22;40693;43.884;20.340;2023-06-22T11:19:36;921.90;1356.80
54796;DHT22;40693;43.884;20.340;2023-06-22T11:22:02;921.70;1356.80
54796;DHT22;40693;43.884;20.340;2023-06-22T11:24:28;921.80;1382.40
54796;DHT22;40693;43.884;20.340;2023-06-22T12:08:23;922.30;1356.80
54796;DHT22;40693;43.884;20.340;2023-06-22T12:10:50;922.20;1356.80
54796;DHT22;40693;43.884;20.340;2023-06-22T12:13:15;922.20;1382.40
54796;DHT22;40693;43.884;20.340;2023-06-22T12:15:41;922.30;1356.80
54796;DHT22;40693;43.884;20.340;2023-06-22T12:18:07;922.50;1382.40
54796;DHT22;40693;43.884;20.340;2023-06-22T12:20:34;922.50;1356.80
54796;DHT22;40693;43.884;20.340;2023-06-22T12:23:00;922.50;1356.80
54796;DHT22;40693;43.884;20.340;2023-06-22T12:25:25;922.50;1331.20
54796;DHT22;40693;43.884;20.340;2023-06-22T12:27:51;922.50;1331.20
54796;DHT22;40693;43.884;20.340;2023-06-22T12:30:17;922.50;1331.20
54796;DHT22;40693;43.884;20.340;2023-06-22T12:32:43;922.50;1331.20
54796;DHT22;40693;43.884;20.340;2023-06-22T12:35:08;922.50;1356.80
54796;DHT22;40693;43.884;20.340;2023-06-22T12:37:40;922.50;1356.80
54796;DHT22;40693;43.884;20.340;2023-06-22T12:40:07;922.30;1356.80
54796;DHT22;40693;43.884;20.340;2023-06-22T12:42:32;922.20;1356.80
54796;DHT22;40693;43.884;20.340;2023-06-22T12:44:58;922.10;1382.40
54796;DHT22;40693;43.884;20.340;2023-06-22T12:47:24;922.30;1408.00
54796;DHT22;40693;43.884;20.340;2023-06-22T12:49:49;922.40;1382.40
54796;DHT22;40693;43.884;20.340;2023-06-22T12:52:15;922.50;1382.40
54796;DHT22;40693;43.884;20.340;2023-06-22T12:54:41;922.50;1382.40
54796;DHT22;40693;43.884;20.340;2023-06-22T12:57:06;922.20;1408.00
54796;DHT22;40693;43.884;20.340;2023-06-22T12:59:32;922.30;1382.40
54796;DHT22;40693;43.884;20.340;2023-06-22T13:01:58;922.50;1408.00
54796;DHT22;40693;43.884;20.340;2023-06-22T13:04:24;922.50;1433.60
54796;DHT22;40693;43.884;20.340;2023-06-22T13:06:50;922.50;1408.00
54796;DHT22;40693;43.884;20.340;2023-06-22T13:09:18;922.30;1408.00
54796;DHT22;40693;43.884;20.340;2023-06-22T13:11:44;922.50;1433.60
54796;DHT22;40693;43.884;20.340;2023-06-22T13:14:10;947.30;1433.60
54796;DHT22;40693;43.884;20.340;2023-06-22T13:16:36;947.20;1408.00
54796;DHT22;40693;43.884;20.340;2023-06-22T13:19:02;922.50;1408.00
54796;DHT22;40693;43.884;20.340;2023-06-22T13:21:28;947.20;1408.00
54796;DHT22;40693;43.884;20.340;2023-06-22T13:23:53;947.30;1433.60
54796;DHT22;40693;43.884;20.340;2023-06-22T13:26:20;947.40;1433.60
54796;DHT22;40693;43.884;20.340;2023-06-22T13:28:46;947.40;1433.60
54796;DHT22;40693;43.884;20.340;2023-06-22T13:31:11;947.40;1433.60
54796;DHT22;40693;43.884;20.340;2023-06-22T13:33:38;947.50;1459.20
54796;DHT22;40693;43.884;20.340;2023-06-22T13:36:04;947.60;1408.00
54796;DHT22;40693;43.884;20.340;2023-06-22T13:38:31;947.60;1433.60
54796;DHT22;40693;43.884;20.340;2023-06-22T13:40:57;947.60;1433.60
54796;DHT22;40693;43.884;20.340;2023-06-22T13:43:26;947.60;1433.60
54796;DHT22;40693;43.884;20.340;2023-06-22T13:45:52;947.30;1433.60
54796;DHT22;40693;43.884;20.340;2023-06-22T13:48:18;947.20;1408.00
54796;DHT22;40693;43.884;20.340;2023-06-22T13:50:44;947.20;1433.60
54796;DHT22;40693;43.884;20.340;2023-06-22T13:53:09;947.20;1433.60
54796;DHT22;40693;43.884;20.340;2023-06-22T13:55:35;947.30;1433.60
54796;DHT22;40693;43.884;20.340;2023-06-22T13:58:01;947.30;1459.20
54796;DHT22;40693;43.884;20.340;2023-06-22T14:00:26;947.30;1433.60
54796;DHT22;40693;43.884;20.340;2023-06-22T14:02:53;947.20;1459.20
54796;DHT22;40693;43.884;20.340;2023-06-22T14:05:20;922.50;1459.20
54796;DHT22;40693;43.884;20.340;2023-06-22T14:07:45;922.50;1484.80
54796;DHT22;40693;43.884;20.340;2023-06-22T14:10:14;922.50;1459.20
54796;DHT22;40693;43.884;20.340;2023-06-22T14:12:40;922.50;1459.20
54796;DHT22;40693;43.884;20.340;2023-06-22T14:15:06;922.30;1459.20
54796;DHT22;40693;43.884;20.340;2023-06-22T14:17:32;922.50;1484.80
54796;DHT22;40693;43.884;20.340;2023-06-22T14:19:58;922.30;1484.80
54796;DHT22;40693;43.884;20.340;2023-06-22T14:22:24;922.50;1484.80
54796;DHT22;40693;43.884;20.340;2023-06-22T14:24:53;922.50;1484.80
54796;DHT22;40693;43.884;20.340;2023-06-22T14:27:21;947.20;1484.80
54796;DHT22;40693;43.884;20.340;2023-06-22T14:29:47;922.50;1484.80
54796;DHT22;40693;43.884;20.340;2023-06-22T14:32:13;922.50;1484.80
54796;DHT22;40693;43.884;20.340;2023-06-22T14:34:39;922.50;1459.20
54796;DHT22;40693;43.884;20.340;2023-06-22T14:37:06;947.30;1433.60
54796;DHT22;40693;43.884;20.340;2023-06-22T14:39:33;947.30;1433.60
54796;DHT22;40693;43.884;20.340;2023-06-22T14:41:59;922.30;1459.20
54796;DHT22;40693;43.884;20.340;2023-06-22T14:44:26;922.50;1484.80
54796;DHT22;40693;43.884;20.340;2023-06-22T14:46:54;922.50;1484.80
54796;DHT22;40693;43.884;20.340;2023-06-22T14:49:20;947.30;1459.20
54796;DHT22;40693;43.884;20.340;2023-06-22T14:51:46;947.30;1459.20
54796;DHT22;40693;43.884;20.340;2023-06-22T14:54:11;947.30;1459.20
54796;DHT22;40693;43.884;20.340;2023-06-22T14:56:37;947.20;1484.80
54796;DHT22;40693;43.884;20.340;2023-06-22T14:59:03;947.20;1459.20
54796;DHT22;40693;43.884;20.340;2023-06-22T15:01:28;922.50;1459.20
54796;DHT22;40693;43.884;20.340;2023-06-22T15:03:55;947.20;1459.20
54796;DHT22;40693;43.884;20.340;2023-06-22T15:06:21;922.50;1459.20
54796;DHT22;40693;43.884;20.340;2023-06-22T15:08:46;922.50;1459.20
54796;DHT22;40693;43.884;20.340;2023-06-22T15:11:12;922.50;1459.20
54796;DHT22;40693;43.884;20.340;2023-06-22T15:13:41;922.50;1433.60
54796;DHT22;40693;43.884;20.340;2023-06-22T15:16:07;922.50;1459.20
54796;DHT22;40693;43.884;20.340;2023-06-22T15:18:34;922.30;1433.60